Time;durP1;ratioP1;P1;durP2;ratioP2;P2;SDS_P1;SDS_P2;PMS_P1;PMS_P2;Temp;Humidity;BMP_temperature;BMP_pressure;BME280_temperature;BME280_humidity;BME280_pressure;Samples;Min_cycle;Max_cycle;Signal;HPM_P1;HPM_P2
2022/02/27 00:02:08;;;;;;;20.40;10.30;;;;;;;;;;5010871;28;20041;-44
2022/02/27 00:04:34;;;;;;;18.13;9.63;;;;;;;;;;5010007;28;20081;-41
2022/02/27 00:07:00;;;;;;;18.48;10.07;;;;;;;;;;5010997;28;20018;-46
2022/02/27 00:09:29;;;;;;;18.73;9.18;;;;;;;;;;5010188;28;20089;-43
2022/02/27 00:11:55;;;;;;;18.77;9.77;;;;;;;;;;5010405;28;20036;-44
2022/02/27 00:14:21;;;;;;;20.80;9.73;;;;;;;;;;5007679;28;20030;-42
2022/02/27 00:16:47;;;;;;;16.90;9.55;;;;;;;;;;5009940;28;20026;-44
2022/02/27 00:19:13;;;;;;;17.98;9.38;;;;;;;;;;5010406;28;20072;-47
2022/02/27 00:21:39;;;;;;;21.80;10.63;;;;;;;;;;5010232;28;20141;-44
2022/02/27 00:24:06;;;;;;;18.08;8.60;;;;;;;;;;5009787;28;20025;-43
2022/02/27 00:26:32;;;;;;;19.80;9.65;;;;;;;;;;5009438;28;20026;-43
2022/02/27 00:28:58;;;;;;;15.93;9.73;;;;;;;;;;5010072;28;20029;-44
2022/02/27 00:31:24;;;;;;;13.90;7.60;;;;;;;;;;5003321;28;20093;-40
2022/02/27 00:33:50;;;;;;;14.73;8.27;;;;;;;;;;5006710;28;20038;-43
2022/02/27 00:36:16;;;;;;;15.20;9.13;;;;;;;;;;5009645;28;20026;-41
2022/02/27 00:38:42;;;;;;;16.55;9.07;;;;;;;;;;5009626;28;20473;-41
2022/02/27 00:41:09;;;;;;;15.20;8.20;;;;;;;;;;5008930;28;20116;-42
2022/02/27 00:43:35;;;;;;;17.15;8.75;;;;;;;;;;5009414;28;20511;-41
2022/02/27 00:46:04;;;;;;;16.65;8.73;;;;;;;;;;5009691;28;20022;-44
2022/02/27 00:48:30;;;;;;;18.50;8.57;;;;;;;;;;5009509;28;20030;-43
2022/02/27 00:50:56;;;;;;;16.30;8.18;;;;;;;;;;5010088;28;20030;-43
2022/02/27 00:53:22;;;;;;;14.45;7.63;;;;;;;;;;5008187;28;20157;-43
2022/02/27 00:55:48;;;;;;;12.02;6.75;;;;;;;;;;5009418;28;20820;-40
2022/02/27 00:58:14;;;;;;;15.05;8.30;;;;;;;;;;5009621;28;20030;-41
2022/02/27 01:00:40;;;;;;;15.48;7.93;;;;;;;;;;5009157;28;20380;-43
2022/02/27 01:03:06;;;;;;;14.15;7.60;;;;;;;;;;5008471;28;20065;-46
2022/02/27 01:05:32;;;;;;;16.88;8.07;;;;;;;;;;5009419;28;20084;-44
2022/02/27 01:07:58;;;;;;;15.90;8.20;;;;;;;;;;5009016;28;20472;-42
2022/02/27 01:10:24;;;;;;;15.52;7.50;;;;;;;;;;5009503;28;20073;-44
2022/02/27 01:12:50;;;;;;;15.73;7.40;;;;;;;;;;5008829;28;20030;-41
2022/02/27 01:15:17;;;;;;;14.90;6.80;;;;;;;;;;5009464;28;20049;-45
2022/02/27 01:17:43;;;;;;;15.68;7.82;;;;;;;;;;5009220;28;20025;-42
2022/02/27 01:20:11;;;;;;;19.05;8.23;;;;;;;;;;5009357;28;20874;-44
2022/02/27 01:22:38;;;;;;;18.05;7.97;;;;;;;;;;5008837;28;20104;-48
2022/02/27 01:25:05;;;;;;;15.77;7.45;;;;;;;;;;5006252;28;20026;-43
2022/02/27 01:27:31;;;;;;;12.85;7.97;;;;;;;;;;5008544;28;20034;-49
2022/02/27 01:29:58;;;;;;;12.77;7.07;;;;;;;;;;5009204;28;20684;-44
2022/02/27 01:32:24;;;;;;;12.82;6.65;;;;;;;;;;5008754;28;20034;-44
2022/02/27 01:34:50;;;;;;;14.85;7.18;;;;;;;;;;5008014;28;20084;-43
2022/02/27 01:37:19;;;;;;;13.07;7.07;;;;;;;;;;5008285;28;20038;-48
2022/02/27 01:39:45;;;;;;;11.82;6.82;;;;;;;;;;5008364;28;20037;-43
2022/02/27 01:42:13;;;;;;;14.52;7.32;;;;;;;;;;5007912;28;20128;-44
2022/02/27 01:44:39;;;;;;;13.15;6.82;;;;;;;;;;5008528;28;20025;-41
2022/02/27 01:47:07;;;;;;;13.45;6.35;;;;;;;;;;5008916;28;20026;-41
2022/02/27 01:49:34;;;;;;;13.75;7.18;;;;;;;;;;5008836;28;20026;-44
2022/02/27 01:52:01;;;;;;;14.13;6.60;;;;;;;;;;5008538;28;20109;-48
2022/02/27 01:54:29;;;;;;;12.02;6.38;;;;;;;;;;5008777;28;20381;-41
2022/02/27 01:56:55;;;;;;;11.75;6.43;;;;;;;;;;5009033;28;20080;-44
2022/02/27 01:59:22;;;;;;;12.55;6.47;;;;;;;;;;5008472;28;20038;-41
2022/02/27 02:01:48;;;;;;;13.98;6.25;;;;;;;;;;5009239;28;20121;-43
2022/02/27 02:04:14;;;;;;;13.45;6.90;;;;;;;;;;5008491;28;20096;-41
2022/02/27 02:06:40;;;;;;;14.18;6.32;;;;;;;;;;5008392;28;20116;-43
2022/02/27 02:09:06;;;;;;;10.55;5.75;;;;;;;;;;5008532;28;20103;-47
2022/02/27 02:11:36;;;;;;;12.73;6.00;;;;;;;;;;5008699;28;20057;-47
2022/02/27 02:14:03;;;;;;;13.98;5.75;;;;;;;;;;5008443;28;20045;-41
2022/02/27 02:16:46;;;;;;;11.80;5.90;;;;;;;;;;5008807;28;20136;-42
2022/02/27 02:19:13;;;;;;;13.75;5.47;;;;;;;;;;5007760;28;20477;-45
2022/02/27 02:21:40;;;;;;;14.50;5.85;;;;;;;;;;5008768;28;20034;-43
2022/02/27 02:24:06;;;;;;;14.05;5.75;;;;;;;;;;5008652;28;20029;-45
2022/02/27 02:26:35;;;;;;;10.88;5.75;;;;;;;;;;5008601;28;20026;-41
2022/02/27 02:29:01;;;;;;;10.73;5.97;;;;;;;;;;5008271;28;20392;-40
2022/02/27 02:31:27;;;;;;;9.82;5.88;;;;;;;;;;5008070;28;20034;-44
2022/02/27 02:33:53;;;;;;;10.68;5.70;;;;;;;;;;5007205;28;20049;-43
2022/02/27 02:36:19;;;;;;;11.15;5.53;;;;;;;;;;5008332;28;20101;-41
2022/02/27 02:38:45;;;;;;;12.35;5.55;;;;;;;;;;5008607;28;20560;-42
2022/02/27 02:41:11;;;;;;;11.95;5.53;;;;;;;;;;5008214;28;20026;-42
2022/02/27 02:43:37;;;;;;;12.82;6.07;;;;;;;;;;5008523;28;20045;-42
2022/02/27 02:46:03;;;;;;;12.75;5.38;;;;;;;;;;5008220;28;20110;-44
2022/02/27 02:48:29;;;;;;;9.55;4.90;;;;;;;;;;5007500;28;20725;-42
2022/02/27 02:50:56;;;;;;;11.90;5.30;;;;;;;;;;5008536;28;20103;-43
2022/02/27 02:53:22;;;;;;;10.70;5.18;;;;;;;;;;5008078;28;20041;-44
2022/02/27 02:55:48;;;;;;;10.20;5.05;;;;;;;;;;5008158;28;20038;-41
2022/02/27 02:58:14;;;;;;;9.18;4.85;;;;;;;;;;5007966;28;20830;-43
2022/02/27 03:00:40;;;;;;;11.60;5.90;;;;;;;;;;5008150;28;20030;-42
2022/02/27 03:03:06;;;;;;;10.68;5.45;;;;;;;;;;5008532;28;20603;-43
2022/02/27 03:05:32;;;;;;;11.20;4.95;;;;;;;;;;5011594;28;20168;-44
2022/02/27 03:07:58;;;;;;;9.50;4.85;;;;;;;;;;5012209;28;20022;-46
2022/02/27 03:10:24;;;;;;;9.27;5.05;;;;;;;;;;5011366;28;20235;-47
2022/02/27 03:12:50;;;;;;;11.45;5.57;;;;;;;;;;5012099;28;20120;-47
2022/02/27 03:15:16;;;;;;;15.48;5.20;;;;;;;;;;5011789;28;20084;-45
2022/02/27 03:17:42;;;;;;;10.43;4.53;;;;;;;;;;5011945;28;20022;-46
2022/02/27 03:20:09;;;;;;;11.80;5.15;;;;;;;;;;5011832;28;20057;-41
2022/02/27 03:22:35;;;;;;;11.55;4.90;;;;;;;;;;5011074;28;20048;-44
2022/02/27 03:25:01;;;;;;;9.40;4.50;;;;;;;;;;5012185;28;20075;-41
2022/02/27 03:27:28;;;;;;;9.25;4.95;;;;;;;;;;5011846;28;20080;-46
2022/02/27 03:29:55;;;;;;;11.85;5.18;;;;;;;;;;5012065;28;20084;-44
2022/02/27 03:32:21;;;;;;;13.68;4.95;;;;;;;;;;5011362;28;20463;-47
2022/02/27 03:34:47;;;;;;;9.45;4.85;;;;;;;;;;5011272;28;20057;-44
2022/02/27 03:37:13;;;;;;;9.45;4.80;;;;;;;;;;5011772;28;20033;-43
2022/02/27 03:39:39;;;;;;;8.18;4.47;;;;;;;;;;5011535;28;20528;-47
2022/02/27 03:42:05;;;;;;;8.55;4.45;;;;;;;;;;5011298;28;20125;-46
2022/02/27 03:44:31;;;;;;;9.10;4.32;;;;;;;;;;5011061;28;20689;-43
2022/02/27 03:46:57;;;;;;;7.45;3.97;;;;;;;;;;5011058;28;20033;-44
2022/02/27 03:49:24;;;;;;;9.20;4.20;;;;;;;;;;5010704;28;20480;-42
2022/02/27 03:51:50;;;;;;;9.38;5.00;;;;;;;;;;5010500;28;20732;-47
2022/02/27 03:54:17;;;;;;;11.95;4.50;;;;;;;;;;5010288;28;20059;-46
2022/02/27 03:56:44;;;;;;;9.07;4.22;;;;;;;;;;5010755;28;20092;-43
2022/02/27 03:59:11;;;;;;;7.18;3.92;;;;;;;;;;5009871;28;20076;-47
2022/02/27 04:01:37;;;;;;;8.95;4.25;;;;;;;;;;5010877;28;20030;-49
2022/02/27 04:04:03;;;;;;;8.75;4.32;;;;;;;;;;5010267;28;20133;-46
2022/02/27 04:06:29;;;;;;;11.00;4.50;;;;;;;;;;5010811;28;20375;-43
2022/02/27 04:08:55;;;;;;;8.30;4.05;;;;;;;;;;5011344;28;20139;-44
2022/02/27 04:11:21;;;;;;;9.75;4.05;;;;;;;;;;5010370;28;20058;-46
2022/02/27 04:13:48;;;;;;;8.55;4.60;;;;;;;;;;5010837;28;20088;-43
2022/02/27 04:16:14;;;;;;;9.32;4.10;;;;;;;;;;5010132;28;20022;-43
2022/02/27 04:18:40;;;;;;;9.80;3.95;;;;;;;;;;5010767;28;20104;-43
2022/02/27 04:21:06;;;;;;;8.00;4.10;;;;;;;;;;5010457;28;20026;-42
2022/02/27 04:23:32;;;;;;;10.13;4.35;;;;;;;;;;5010077;28;20172;-42
2022/02/27 04:25:58;;;;;;;10.05;4.82;;;;;;;;;;5010888;28;20109;-43
2022/02/27 04:28:25;;;;;;;8.27;4.15;;;;;;;;;;5010448;28;20132;-46
2022/02/27 04:30:51;;;;;;;10.32;4.10;;;;;;;;;;5011390;28;20053;-41
2022/02/27 04:33:18;;;;;;;10.00;3.83;;;;;;;;;;5010107;28;20038;-41
2022/02/27 04:35:44;;;;;;;9.25;4.03;;;;;;;;;;5010168;28;20029;-43
2022/02/27 04:38:10;;;;;;;10.27;4.35;;;;;;;;;;5010416;28;20125;-44
2022/02/27 04:40:36;;;;;;;8.02;3.42;;;;;;;;;;5010546;28;20214;-45
2022/02/27 04:43:03;;;;;;;11.05;3.97;;;;;;;;;;5009198;28;20046;-41
2022/02/27 04:45:29;;;;;;;9.93;4.00;;;;;;;;;;5009495;28;20502;-46
2022/02/27 04:47:55;;;;;;;8.63;4.18;;;;;;;;;;5009969;28;20088;-44
2022/02/27 04:50:22;;;;;;;9.65;4.13;;;;;;;;;;5010558;28;20060;-42
2022/02/27 04:52:48;;;;;;;6.88;3.70;;;;;;;;;;5010854;28;20026;-41
2022/02/27 04:55:14;;;;;;;8.70;3.88;;;;;;;;;;5010338;28;20053;-42
2022/02/27 04:57:40;;;;;;;7.28;3.53;;;;;;;;;;5010112;28;20100;-44
2022/02/27 05:00:07;;;;;;;8.52;3.78;;;;;;;;;;5009928;28;20425;-46
2022/02/27 05:02:34;;;;;;;8.55;3.45;;;;;;;;;;5010059;28;20044;-45
2022/02/27 05:05:00;;;;;;;6.63;3.17;;;;;;;;;;5010061;28;20072;-43
2022/02/27 05:07:26;;;;;;;9.80;4.03;;;;;;;;;;5008108;28;20018;-44
2022/02/27 05:09:52;;;;;;;10.35;3.10;;;;;;;;;;5008748;28;20026;-42
2022/02/27 05:12:18;;;;;;;10.68;4.07;;;;;;;;;;5009038;28;20374;-43
2022/02/27 05:14:44;;;;;;;11.27;3.63;;;;;;;;;;5008310;28;20136;-43
2022/02/27 05:17:10;;;;;;;7.43;3.38;;;;;;;;;;5008479;28;20116;-43
2022/02/27 05:19:37;;;;;;;11.32;3.58;;;;;;;;;;5008997;28;20028;-45
2022/02/27 05:22:03;;;;;;;10.23;3.67;;;;;;;;;;5007488;28;20037;-47
2022/02/27 05:24:29;;;;;;;10.70;3.50;;;;;;;;;;5007514;28;20353;-41
2022/02/27 05:26:55;;;;;;;8.43;3.42;;;;;;;;;;5006516;28;20109;-45
2022/02/27 05:29:21;;;;;;;13.23;3.90;;;;;;;;;;5007545;28;20040;-43
2022/02/27 05:31:47;;;;;;;9.30;3.70;;;;;;;;;;5007424;28;20029;-42
2022/02/27 05:34:13;;;;;;;10.50;3.83;;;;;;;;;;5007655;28;20396;-44
2022/02/27 05:36:39;;;;;;;12.38;4.43;;;;;;;;;;5008825;28;20033;-42
2022/02/27 05:39:06;;;;;;;13.15;5.30;;;;;;;;;;5008651;28;20168;-43
2022/02/27 05:41:32;;;;;;;34.28;20.00;;;;;;;;;;5008000;28;20108;-44
2022/02/27 05:43:59;;;;;;;26.33;14.98;;;;;;;;;;5009161;28;20528;-48
2022/02/27 05:46:25;;;;;;;23.92;12.00;;;;;;;;;;5008829;28;20029;-46
2022/02/27 05:48:51;;;;;;;21.30;12.05;;;;;;;;;;5004403;28;20040;-42
2022/02/27 05:51:17;;;;;;;27.73;12.23;;;;;;;;;;5007255;28;20457;-42
2022/02/27 05:53:43;;;;;;;18.77;11.32;;;;;;;;;;5008581;28;20026;-46
2022/02/27 05:56:09;;;;;;;20.05;10.80;;;;;;;;;;5007966;28;20034;-44
2022/02/27 05:58:36;;;;;;;24.95;11.48;;;;;;;;;;5007873;28;20030;-42
2022/02/27 06:01:02;;;;;;;21.00;10.32;;;;;;;;;;5008299;28;20026;-43
2022/02/27 06:03:28;;;;;;;19.00;10.82;;;;;;;;;;5006743;28;20136;-44
2022/02/27 06:05:54;;;;;;;20.98;9.95;;;;;;;;;;5007916;28;20045;-45
2022/02/27 06:08:20;;;;;;;16.42;8.80;;;;;;;;;;5007872;28;20494;-44
2022/02/27 06:10:47;;;;;;;17.52;9.45;;;;;;;;;;5008599;28;20077;-43
2022/02/27 06:13:13;;;;;;;19.67;8.15;;;;;;;;;;5004775;28;20552;-41
2022/02/27 06:15:39;;;;;;;14.60;7.80;;;;;;;;;;5008265;28;20033;-43
2022/02/27 06:18:05;;;;;;;23.63;8.05;;;;;;;;;;5006293;28;20715;-49
2022/02/27 06:20:31;;;;;;;17.33;8.38;;;;;;;;;;5007685;28;20026;-42
2022/02/27 06:22:57;;;;;;;16.90;8.35;;;;;;;;;;5006874;28;20046;-46
2022/02/27 06:25:23;;;;;;;19.55;8.25;;;;;;;;;;5007774;28;20037;-46
2022/02/27 06:27:50;;;;;;;25.50;8.15;;;;;;;;;;5007079;28;20103;-44
2022/02/27 06:30:17;;;;;;;16.35;7.55;;;;;;;;;;5007009;28;20045;-44
2022/02/27 06:32:44;;;;;;;17.92;6.55;;;;;;;;;;5007504;28;20112;-44
2022/02/27 06:35:11;;;;;;;22.10;7.75;;;;;;;;;;5008053;28;20034;-42
2022/02/27 06:37:37;;;;;;;15.32;6.47;;;;;;;;;;5007548;28;20032;-43
2022/02/27 06:40:04;;;;;;;16.30;6.50;;;;;;;;;;5006912;28;20034;-47
2022/02/27 06:42:30;;;;;;;20.95;7.03;;;;;;;;;;5007178;28;20044;-42
2022/02/27 06:44:56;;;;;;;19.90;6.25;;;;;;;;;;5007777;28;20092;-43
2022/02/27 06:47:22;;;;;;;18.63;7.32;;;;;;;;;;5005672;28;20132;-47
2022/02/27 06:49:49;;;;;;;20.20;6.60;;;;;;;;;;5007962;28;20392;-42
2022/02/27 06:52:15;;;;;;;19.45;7.68;;;;;;;;;;5008953;28;20131;-43
2022/02/27 06:54:41;;;;;;;15.52;6.40;;;;;;;;;;5008293;28;20476;-45
2022/02/27 06:57:07;;;;;;;19.35;6.20;;;;;;;;;;5009072;28;20564;-44
2022/02/27 06:59:33;;;;;;;17.20;6.70;;;;;;;;;;5008274;28;20559;-42
2022/02/27 07:01:59;;;;;;;20.73;6.75;;;;;;;;;;5008999;28;20567;-48
2022/02/27 07:04:25;;;;;;;14.40;5.88;;;;;;;;;;5007682;28;20046;-43
2022/02/27 07:06:52;;;;;;;12.52;5.47;;;;;;;;;;5007590;28;20604;-44
2022/02/27 07:09:19;;;;;;;16.05;6.30;;;;;;;;;;5007879;28;20030;-48
2022/02/27 07:11:45;;;;;;;14.88;6.22;;;;;;;;;;5007893;28;20423;-42
2022/02/27 07:14:12;;;;;;;22.05;6.07;;;;;;;;;;5007991;28;20046;-45
2022/02/27 07:16:38;;;;;;;14.95;5.97;;;;;;;;;;5008234;28;20041;-40
2022/02/27 07:19:04;;;;;;;11.02;5.57;;;;;;;;;;5008213;28;20057;-43
2022/02/27 07:21:33;;;;;;;15.10;5.50;;;;;;;;;;5006496;28;20030;-45
2022/02/27 07:24:00;;;;;;;14.63;6.32;;;;;;;;;;5007992;28;20069;-50
2022/02/27 07:26:26;;;;;;;15.02;5.93;;;;;;;;;;5008153;28;20030;-44
2022/02/27 07:28:52;;;;;;;13.02;5.63;;;;;;;;;;5008187;28;20061;-44
2022/02/27 07:31:18;;;;;;;14.60;4.80;;;;;;;;;;5007734;28;20056;-43
2022/02/27 07:33:45;;;;;;;13.82;5.57;;;;;;;;;;5008509;28;20033;-49
2022/02/27 07:36:11;;;;;;;11.95;5.40;;;;;;;;;;5007976;28;20551;-47
2022/02/27 07:38:37;;;;;;;13.45;4.70;;;;;;;;;;5008500;28;20101;-46
2022/02/27 07:41:09;;;;;;;13.57;5.25;;;;;;;;;;5008342;28;20041;-42
2022/02/27 07:43:35;;;;;;;9.65;4.55;;;;;;;;;;4989081;28;20131;-45
2022/02/27 07:46:03;;;;;;;11.15;4.82;;;;;;;;;;5002687;28;20048;-44
2022/02/27 07:48:29;;;;;;;12.10;4.90;;;;;;;;;;5006867;28;20855;-45
2022/02/27 07:50:55;;;;;;;15.98;5.00;;;;;;;;;;5008973;28;20338;-44
2022/02/27 07:53:21;;;;;;;14.35;5.00;;;;;;;;;;5010725;28;20026;-46
2022/02/27 07:55:47;;;;;;;15.52;4.53;;;;;;;;;;5006886;28;20065;-47
2022/02/27 07:58:13;;;;;;;10.52;4.35;;;;;;;;;;5010502;28;20057;-44
2022/02/27 08:00:41;;;;;;;13.10;4.50;;;;;;;;;;5010176;28;20022;-44
2022/02/27 08:03:10;;;;;;;13.70;4.68;;;;;;;;;;5009655;28;20085;-48
2022/02/27 08:05:38;;;;;;;11.13;3.97;;;;;;;;;;5009246;28;20033;-43
2022/02/27 08:08:05;;;;;;;11.27;4.97;;;;;;;;;;5003816;28;20026;-49
2022/02/27 08:10:31;;;;;;;12.23;3.60;;;;;;;;;;5008189;28;20034;-47
2022/02/27 08:12:57;;;;;;;14.82;4.32;;;;;;;;;;5009872;28;20029;-45
2022/02/27 08:15:23;;;;;;;11.25;3.80;;;;;;;;;;5008506;28;20030;-47
2022/02/27 08:17:51;;;;;;;12.43;4.63;;;;;;;;;;5008884;28;20545;-45
2022/02/27 08:20:17;;;;;;;10.43;4.60;;;;;;;;;;5009512;28;20171;-44
2022/02/27 08:22:43;;;;;;;10.15;4.15;;;;;;;;;;5009542;28;20113;-44
2022/02/27 08:25:14;;;;;;;14.05;4.32;;;;;;;;;;5009608;28;20113;-45
2022/02/27 08:27:40;;;;;;;10.93;3.85;;;;;;;;;;5007703;28;20093;-43
2022/02/27 08:30:06;;;;;;;13.23;4.07;;;;;;;;;;5009987;28;20018;-44
2022/02/27 08:32:33;;;;;;;9.88;3.90;;;;;;;;;;5009322;28;20037;-46
2022/02/27 08:34:59;;;;;;;12.15;3.58;;;;;;;;;;5009870;28;20441;-48
2022/02/27 08:37:25;;;;;;;13.32;3.70;;;;;;;;;;5009134;28;20056;-44
2022/02/27 08:39:51;;;;;;;13.60;3.67;;;;;;;;;;5009863;28;20527;-44
2022/02/27 08:42:17;;;;;;;10.13;3.80;;;;;;;;;;5010105;28;20537;-42
2022/02/27 08:44:43;;;;;;;10.30;3.72;;;;;;;;;;5010897;28;20033;-43
2022/02/27 08:47:11;;;;;;;11.65;4.25;;;;;;;;;;5010586;28;20026;-44
2022/02/27 08:49:37;;;;;;;8.05;3.33;;;;;;;;;;5009633;28;20024;-43
2022/02/27 08:52:03;;;;;;;11.27;3.78;;;;;;;;;;5010516;28;20033;-45
2022/02/27 08:54:30;;;;;;;7.45;3.25;;;;;;;;;;5009203;28;20629;-42
2022/02/27 08:56:56;;;;;;;11.13;3.67;;;;;;;;;;5010170;28;20037;-45
2022/02/27 08:59:23;;;;;;;14.50;4.43;;;;;;;;;;5011088;28;20117;-43
2022/02/27 09:01:49;;;;;;;16.13;3.53;;;;;;;;;;5009640;28;20026;-45
2022/02/27 09:04:16;;;;;;;11.93;4.03;;;;;;;;;;5004250;28;20089;-44
2022/02/27 09:06:41;;;;;;;12.55;4.20;;;;;;;;;;5009223;28;20425;-44
2022/02/27 09:09:08;;;;;;;20.55;5.47;;;;;;;;;;5009546;28;20061;-44
2022/02/27 09:11:34;;;;;;;21.10;7.70;;;;;;;;;;5009794;28;20848;-43
2022/02/27 09:14:00;;;;;;;22.65;7.30;;;;;;;;;;5009424;28;20116;-45
2022/02/27 09:16:26;;;;;;;18.73;7.50;;;;;;;;;;5009126;28;20556;-48
2022/02/27 09:18:52;;;;;;;21.83;8.75;;;;;;;;;;5010031;28;20136;-40
2022/02/27 09:21:18;;;;;;;22.60;7.90;;;;;;;;;;5008987;28;20501;-41
2022/02/27 09:23:44;;;;;;;23.20;8.73;;;;;;;;;;5010014;28;20053;-41
2022/02/27 09:26:10;;;;;;;22.15;7.20;;;;;;;;;;5011820;28;20022;-41
2022/02/27 09:28:36;;;;;;;22.60;8.23;;;;;;;;;;5006968;28;20022;-42
2022/02/27 09:31:02;;;;;;;23.15;7.85;;;;;;;;;;5008902;28;20029;-41
2022/02/27 09:33:30;;;;;;;19.52;7.18;;;;;;;;;;5011488;28;20387;-45
2022/02/27 09:35:56;;;;;;;23.75;8.13;;;;;;;;;;5009177;28;20045;-45
2022/02/27 09:38:22;;;;;;;21.45;6.95;;;;;;;;;;5009200;28;20460;-43
2022/02/27 09:40:49;;;;;;;19.35;6.35;;;;;;;;;;5009595;28;20018;-43
2022/02/27 09:43:17;;;;;;;17.08;7.97;;;;;;;;;;5010158;28;20096;-43
2022/02/27 09:45:44;;;;;;;20.25;6.57;;;;;;;;;;5009940;28;20014;-47
2022/02/27 09:48:11;;;;;;;21.75;6.80;;;;;;;;;;5010826;28;20080;-44
2022/02/27 09:50:38;;;;;;;23.05;6.25;;;;;;;;;;5015128;28;20038;-43
2022/02/27 09:53:07;;;;;;;15.00;6.03;;;;;;;;;;5018549;28;20087;-43
2022/02/27 09:55:34;;;;;;;15.77;6.03;;;;;;;;;;5012967;28;20030;-46
2022/02/27 09:58:00;;;;;;;19.25;5.03;;;;;;;;;;5010147;28;20437;-46
2022/02/27 10:00:27;;;;;;;17.58;5.53;;;;;;;;;;5019641;28;20076;-45
2022/02/27 10:03:03;;;;;;;16.73;4.90;;;;;;;;;;5011797;28;20041;-51
2022/02/27 10:05:29;;;;;;;14.77;4.97;;;;;;;;;;5008412;28;20034;-41
2022/02/27 10:08:02;;;;;;;21.00;4.80;;;;;;;;;;5008599;28;20068;-44
2022/02/27 10:10:28;;;;;;;15.55;4.15;;;;;;;;;;5007211;28;20025;-43
2022/02/27 10:12:55;;;;;;;15.63;4.97;;;;;;;;;;5008373;28;20041;-44
2022/02/27 10:15:21;;;;;;;15.20;5.47;;;;;;;;;;5009003;28;20125;-46
2022/02/27 10:17:51;;;;;;;12.95;3.97;;;;;;;;;;5008501;28;20276;-45
2022/02/27 10:20:18;;;;;;;10.45;3.83;;;;;;;;;;5009719;28;20116;-42
2022/02/27 10:22:48;;;;;;;14.30;4.07;;;;;;;;;;5014397;28;20036;-43
2022/02/27 10:25:14;;;;;;;;;;;;;;;;;;5004487;28;20030;-49
2022/02/27 10:27:44;;;;;;;13.63;4.15;;;;;;;;;;5014522;28;19952;-41
2022/02/27 10:30:16;;;;;;;16.08;5.65;;;;;;;;;;5023889;28;20033;-45
2022/02/27 10:32:46;;;;;;;12.48;4.03;;;;;;;;;;5009049;28;20511;-42
2022/02/27 10:35:32;;;;;;;11.75;3.70;;;;;;;;;;5015150;28;20873;-42
2022/02/27 10:37:58;;;;;;;11.90;3.75;;;;;;;;;;5017464;28;20492;-47
2022/02/27 10:40:31;;;;;;;13.52;4.45;;;;;;;;;;5010627;28;20028;-48
2022/02/27 10:43:01;;;;;;;10.35;3.95;;;;;;;;;;5010150;28;20045;-43
2022/02/27 10:45:27;;;;;;;;;;;;;;;;;;5020833;28;20067;-46
2022/02/27 10:48:04;;;;;;;12.23;4.30;;;;;;;;;;5008943;28;20004;-43
2022/02/27 10:50:30;;;;;;;12.10;3.88;;;;;;;;;;4997555;28;20054;-46
2022/02/27 10:52:56;;;;;;;11.48;3.97;;;;;;;;;;5012602;28;20026;-43
2022/02/27 10:55:22;;;;;;;8.75;3.28;;;;;;;;;;5009215;28;20113;-47
2022/02/27 10:57:50;;;;;;;9.00;3.20;;;;;;;;;;5022571;28;20108;-42
2022/02/27 11:00:19;;;;;;;17.52;4.75;;;;;;;;;;5024985;28;20025;-45
2022/02/27 11:02:52;;;;;;;9.13;3.38;;;;;;;;;;5008404;28;20069;-43
2022/02/27 11:05:19;;;;;;;9.25;3.42;;;;;;;;;;5010687;28;20040;-41
2022/02/27 11:07:48;;;;;;;13.40;4.53;;;;;;;;;;5014798;28;20087;-43
2022/02/27 11:10:15;;;;;;;11.20;3.75;;;;;;;;;;5008757;28;20030;-50
2022/02/27 11:12:41;;;;;;;11.20;3.40;;;;;;;;;;5014530;28;20072;-47
2022/02/27 11:15:09;;;;;;;8.98;3.42;;;;;;;;;;5022383;28;20109;-42
2022/02/27 11:17:35;;;;;;;9.52;3.40;;;;;;;;;;5015123;28;20030;-45
2022/02/27 11:20:02;;;;;;;9.32;3.10;;;;;;;;;;5007948;28;20022;-43
2022/02/27 11:22:29;;;;;;;8.18;3.72;;;;;;;;;;5009299;28;20086;-46
2022/02/27 11:24:58;;;;;;;11.27;3.55;;;;;;;;;;5008056;28;20037;-45
2022/02/27 11:27:27;;;;;;;8.43;3.40;;;;;;;;;;5015745;28;20057;-44
2022/02/27 11:29:55;;;;;;;9.93;3.63;;;;;;;;;;5011058;28;20377;-42
2022/02/27 11:32:21;;;;;;;9.65;3.15;;;;;;;;;;5009064;28;20646;-44
2022/02/27 11:34:47;;;;;;;13.00;3.58;;;;;;;;;;5009308;28;20034;-44
2022/02/27 11:37:13;;;;;;;11.30;3.58;;;;;;;;;;5009249;28;20061;-46
2022/02/27 11:42:42;;;;;;;10.35;3.40;;;;;;;;;;5009926;28;20052;-47
2022/02/27 11:45:09;;;;;;;9.13;2.75;;;;;;;;;;5010863;28;20112;-42
2022/02/27 11:47:49;;;;;;;11.27;3.13;;;;;;;;;;5008254;28;20130;-46
2022/02/27 11:50:26;;;;;;;10.73;3.30;;;;;;;;;;5009203;28;20022;-45
2022/02/27 11:52:52;;;;;;;8.52;2.63;;;;;;;;;;5008216;28;20088;-42
2022/02/27 11:55:37;;;;;;;8.23;2.85;;;;;;;;;;5009906;28;20022;-42
2022/02/27 11:58:03;;;;;;;9.27;3.35;;;;;;;;;;5009574;28;20798;-45
2022/02/27 12:00:39;;;;;;;11.75;3.28;;;;;;;;;;5010129;28;20049;-43
2022/02/27 12:03:24;;;;;;;8.15;2.72;;;;;;;;;;5005342;28;20836;-41
2022/02/27 12:05:55;;;;;;;6.47;2.90;;;;;;;;;;5010015;28;20072;-42
2022/02/27 12:08:39;;;;;;;8.13;2.95;;;;;;;;;;5009419;28;20026;-45
2022/02/27 12:11:05;;;;;;;7.55;2.30;;;;;;;;;;5010953;28;20038;-44
2022/02/27 12:13:32;;;;;;;7.82;2.75;;;;;;;;;;5009215;28;20034;-41
2022/02/27 12:16:04;;;;;;;7.88;2.38;;;;;;;;;;5011320;28;20036;-45
2022/02/27 12:18:30;;;;;;;7.68;2.78;;;;;;;;;;5004946;28;20034;-44
2022/02/27 12:20:58;;;;;;;10.40;2.90;;;;;;;;;;5009399;28;20045;-44
2022/02/27 12:23:34;;;;;;;9.35;3.75;;;;;;;;;;5008024;28;20464;-44
2022/02/27 12:26:01;;;;;;;6.75;2.80;;;;;;;;;;5008284;28;20450;-41
2022/02/27 12:28:48;;;;;;;7.95;3.45;;;;;;;;;;5009145;28;20030;-45
2022/02/27 12:31:21;;;;;;;5.57;2.00;;;;;;;;;;5007933;28;20091;-42
2022/02/27 12:33:49;;;;;;;7.50;2.58;;;;;;;;;;5008889;28;20030;-41
2022/02/27 12:36:27;;;;;;;8.27;2.67;;;;;;;;;;5007653;28;20026;-44
2022/02/27 12:39:02;;;;;;;7.20;2.60;;;;;;;;;;5007174;28;20494;-45
2022/02/27 12:41:28;;;;;;;5.82;2.35;;;;;;;;;;5007518;28;20461;-42
2022/02/27 12:43:55;;;;;;;6.72;2.42;;;;;;;;;;5008644;28;20550;-45
2022/02/27 12:46:22;;;;;;;6.78;2.70;;;;;;;;;;5009484;28;20449;-44
2022/02/27 12:51:36;;;;;;;11.32;2.70;;;;;;;;;;5006661;28;20093;-41
2022/02/27 12:54:10;;;;;;;8.77;2.80;;;;;;;;;;5009434;28;20026;-41
2022/02/27 12:56:36;;;;;;;14.95;2.63;;;;;;;;;;5007846;28;20036;-41
2022/02/27 12:59:03;;;;;;;8.20;2.22;;;;;;;;;;5008748;28;20116;-42
2022/02/27 13:01:29;;;;;;;10.10;2.25;;;;;;;;;;5005931;28;20108;-50
2022/02/27 13:04:02;;;;;;;10.68;2.58;;;;;;;;;;5008233;28;20393;-45
2022/02/27 13:06:28;;;;;;;8.20;2.67;;;;;;;;;;5008327;28;20101;-41
2022/02/27 13:08:56;;;;;;;9.73;2.97;;;;;;;;;;5008391;28;20391;-42
2022/02/27 13:11:41;;;;;;;7.13;2.47;;;;;;;;;;5008013;28;20533;-42
2022/02/27 13:14:06;;;;;;;6.40;2.28;;;;;;;;;;5007229;28;20022;-45
2022/02/27 13:16:34;;;;;;;4.70;2.15;;;;;;;;;;5004251;28;20106;-44
2022/02/27 13:19:00;;;;;;;8.52;1.95;;;;;;;;;;5007390;28;20014;-48
2022/02/27 13:21:28;;;;;;;5.32;2.20;;;;;;;;;;5007736;28;20072;-43
2022/02/27 13:23:57;;;;;;;7.07;3.10;;;;;;;;;;5007810;28;20022;-44
2022/02/27 13:26:24;;;;;;;7.88;2.70;;;;;;;;;;5007778;28;20112;-47
2022/02/27 13:28:56;;;;;;;8.52;1.88;;;;;;;;;;5008843;28;20829;-42
2022/02/27 13:31:24;;;;;;;5.63;2.10;;;;;;;;;;5008022;28;20408;-43
2022/02/27 13:33:51;;;;;;;3.83;1.73;;;;;;;;;;5007667;28;20480;-43
2022/02/27 13:36:18;;;;;;;9.50;2.05;;;;;;;;;;5008605;28;20029;-44
2022/02/27 13:38:48;;;;;;;6.22;2.00;;;;;;;;;;5008676;28;20030;-44
2022/02/27 13:41:25;;;;;;;5.70;2.30;;;;;;;;;;5007989;28;20026;-43
2022/02/27 13:43:53;;;;;;;6.55;2.28;;;;;;;;;;5008073;28;20055;-42
2022/02/27 13:46:19;;;;;;;5.03;2.00;;;;;;;;;;5006439;28;20030;-43
2022/02/27 13:48:46;;;;;;;7.05;1.90;;;;;;;;;;5007261;28;20080;-47
2022/02/27 13:51:24;;;;;;;6.50;2.10;;;;;;;;;;5008714;28;20033;-47
2022/02/27 13:53:50;;;;;;;6.20;2.17;;;;;;;;;;5006840;28;20080;-42
2022/02/27 13:56:16;;;;;;;4.38;1.63;;;;;;;;;;5007722;28;20053;-47
2022/02/27 13:58:44;;;;;;;7.47;2.15;;;;;;;;;;5006399;28;20101;-41
2022/02/27 14:01:15;;;;;;;5.30;1.75;;;;;;;;;;5005945;28;20037;-42
2022/02/27 14:03:43;;;;;;;6.03;2.00;;;;;;;;;;5007394;28;20357;-41
2022/02/27 14:06:09;;;;;;;6.22;2.10;;;;;;;;;;5007876;28;20033;-48
2022/02/27 14:08:37;;;;;;;6.03;1.75;;;;;;;;;;5007196;28;20042;-49
2022/02/27 14:11:10;;;;;;;5.82;1.80;;;;;;;;;;5007827;28;20456;-43
2022/02/27 14:13:41;;;;;;;4.88;1.95;;;;;;;;;;5005718;28;20109;-44
2022/02/27 14:16:07;;;;;;;5.20;1.75;;;;;;;;;;5007749;28;20014;-43
2022/02/27 14:18:39;;;;;;;4.57;1.58;;;;;;;;;;5007622;28;20561;-43
2022/02/27 14:21:25;;;;;;;4.03;1.75;;;;;;;;;;5008153;28;20056;-43
2022/02/27 14:24:06;;;;;;;5.80;1.92;;;;;;;;;;5007775;28;20041;-44
2022/02/27 14:26:33;;;;;;;4.78;1.92;;;;;;;;;;5004663;28;20037;-41
2022/02/27 14:29:01;;;;;;;5.13;1.92;;;;;;;;;;5008080;28;20109;-40
2022/02/27 14:31:30;;;;;;;5.00;1.70;;;;;;;;;;5007931;28;20501;-42
2022/02/27 14:34:00;;;;;;;4.57;1.60;;;;;;;;;;5007459;28;20025;-45
2022/02/27 14:36:26;;;;;;;5.38;1.48;;;;;;;;;;5007386;28;20030;-48
2022/02/27 14:38:52;;;;;;;5.25;1.48;;;;;;;;;;5008167;28;20101;-44
2022/02/27 14:41:21;;;;;;;7.35;2.15;;;;;;;;;;5007048;28;20044;-43